Time;durP1;ratioP1;P1;durP2;ratioP2;P2;SDS_P1;SDS_P2;PMS_P1;PMS_P2;Temp;Humidity;BMP_temperature;BMP_pressure;BME280_temperature;BME280_humidity;BME280_pressure;Samples;Min_cycle;Max_cycle;Signal;HPM_P1;HPM_P2
2023/04/03 00:01:13;;;;;;;6.75;3.75;;;;;;;0.83;89.71;102881.16;5065105;28;20049;-77
2023/04/03 00:03:41;;;;;;;7.63;3.90;;;;;;;0.90;89.90;102894.47;5065025;28;20041;-77
2023/04/03 00:06:11;;;;;;;5.22;3.65;;;;;;;0.97;89.63;102887.84;5058600;28;20649;-79
2023/04/03 00:08:40;;;;;;;9.52;3.85;;;;;;;1.00;89.29;102889.66;5066976;28;20669;-77
2023/04/03 00:11:09;;;;;;;5.57;4.05;;;;;;;1.05;89.11;102893.38;5065497;28;20049;-78
2023/04/03 00:13:37;;;;;;;4.53;3.30;;;;;;;1.09;88.88;102892.66;5061649;28;20041;-79
2023/04/03 00:16:06;;;;;;;7.28;3.63;;;;;;;1.08;88.83;102883.06;5062740;28;20043;-79
2023/04/03 00:18:34;;;;;;;7.40;3.55;;;;;;;1.06;88.87;102893.41;5066714;28;20047;-79
2023/04/03 00:21:01;;;;;;;6.57;3.53;;;;;;;1.05;88.71;102882.97;5063424;28;20075;-78
2023/04/03 00:23:28;;;;;;;6.05;3.60;;;;;;;1.10;88.67;102894.44;5061066;28;20132;-78
2023/04/03 00:25:55;;;;;;;6.90;3.53;;;;;;;1.12;88.58;102900.56;5051400;28;20049;-78
2023/04/03 00:28:22;;;;;;;5.90;3.42;;;;;;;1.13;88.44;102896.25;5067732;28;20043;-78
2023/04/03 00:30:50;;;;;;;8.27;3.92;;;;;;;1.14;88.22;102898.94;5065494;28;20045;-79
2023/04/03 00:33:21;;;;;;;4.80;3.50;;;;;;;1.15;88.06;102894.63;5063038;28;20045;-79
2023/04/03 00:35:49;;;;;;;6.32;3.53;;;;;;;1.14;88.17;102905.81;5065201;28;20045;-79
2023/04/03 00:38:17;;;;;;;6.88;3.75;;;;;;;1.12;87.92;102897.97;5064791;28;20524;-79
2023/04/03 00:40:48;;;;;;;7.00;3.42;;;;;;;1.10;88.03;102896.16;5063647;28;20138;-79
2023/04/03 00:43:23;;;;;;;7.45;3.42;;;;;;;1.09;88.05;102900.44;5069430;28;20104;-80
2023/04/03 00:45:53;;;;;;;5.53;3.25;;;;;;;1.07;87.94;102897.78;5062916;28;20059;-79
2023/04/03 00:48:43;;;;;;;5.35;3.38;;;;;;;1.07;87.95;102902.06;5060736;28;20079;-79
2023/04/03 00:51:24;;;;;;;5.20;3.17;;;;;;;1.07;87.82;102902.06;5061451;28;20043;-78
2023/04/03 00:54:10;;;;;;;5.38;3.22;;;;;;;1.05;87.77;102904.63;5063668;28;20080;-78
2023/04/03 00:56:38;;;;;;;6.47;3.53;;;;;;;1.04;87.77;102902.84;5064468;28;20112;-77
2023/04/03 00:59:14;;;;;;;6.63;3.72;;;;;;;1.04;87.66;102905.44;5063061;28;20045;-78
2023/04/03 01:01:43;;;;;;;5.60;3.58;;;;;;;1.02;87.69;102907.09;5063732;28;20041;-77
2023/04/03 01:04:37;;;;;;;6.60;3.85;;;;;;;1.01;87.77;102907.94;5064754;28;20037;-77
2023/04/03 01:07:15;;;;;;;6.80;3.33;;;;;;;1.01;87.73;102909.63;5060786;28;20041;-77
2023/04/03 01:09:44;;;;;;;7.88;3.92;;;;;;;1.01;87.66;102912.22;5064551;28;20130;-78
2023/04/03 01:12:41;;;;;;;6.97;3.33;;;;;;;1.03;87.54;102914.06;5061845;28;20037;-79
2023/04/03 01:15:20;;;;;;;5.20;3.17;;;;;;;1.04;87.50;102909.78;5051820;28;20122;-78
2023/04/03 01:17:56;;;;;;;6.25;3.47;;;;;;;1.04;87.46;102910.63;5060239;28;20380;-81
2023/04/03 01:20:35;;;;;;;5.63;3.10;;;;;;;1.01;87.47;102905.34;5062604;28;20879;-78
2023/04/03 01:23:12;;;;;;;6.35;3.20;;;;;;;0.99;87.44;102912.19;5057459;28;20041;-79
2023/04/03 01:25:48;;;;;;;3.77;2.40;;;;;;;0.97;87.55;102913.81;5062778;28;20148;-79
2023/04/03 01:28:26;;;;;;;4.43;3.05;;;;;;;0.96;87.50;102917.22;5064190;28;20041;-79
2023/04/03 01:31:35;;;;;;;6.18;3.22;;;;;;;0.97;87.66;102926.78;5048243;28;20041;-79
2023/04/03 01:34:03;;;;;;;6.47;3.10;;;;;;;0.96;87.59;102924.16;5059968;28;20122;-80
2023/04/03 01:36:31;;;;;;;3.92;2.65;;;;;;;0.96;87.52;102922.41;5060662;28;20060;-80
2023/04/03 01:39:00;;;;;;;7.30;2.80;;;;;;;0.97;87.66;102926.78;5049555;28;20128;-79
2023/04/03 01:41:29;;;;;;;7.00;2.83;;;;;;;0.98;87.50;102925.06;5053636;28;20060;-80
2023/04/03 01:44:04;;;;;;;5.38;3.20;;;;;;;0.96;87.66;102931.94;5026385;28;1095104;-81
2023/04/03 01:46:31;;;;;;;4.97;2.97;;;;;;;0.92;87.65;102929.19;5063808;28;20041;-80
2023/04/03 01:48:59;;;;;;;4.75;2.75;;;;;;;0.93;87.72;102927.47;5063647;28;20401;-80
2023/04/03 01:51:26;;;;;;;6.13;2.80;;;;;;;0.90;87.75;102924.78;5064232;28;20809;-81
2023/04/03 01:53:53;;;;;;;4.95;2.50;;;;;;;0.90;87.85;102932.56;5063161;28;20068;-81
2023/04/03 01:56:20;;;;;;;4.85;2.53;;;;;;;0.89;87.85;102928.19;5063754;28;20117;-81
2023/04/03 01:58:48;;;;;;;6.32;2.92;;;;;;;0.89;88.00;102923.88;5065591;28;20049;-80
2023/04/03 02:01:15;;;;;;;4.00;2.65;;;;;;;0.88;88.05;102926.41;5062848;28;20049;-80
2023/04/03 02:03:42;;;;;;;4.68;2.42;;;;;;;0.83;87.93;102931.41;5064165;28;20121;-80
2023/04/03 02:06:09;;;;;;;5.60;2.58;;;;;;;0.82;88.14;102928.72;5065455;28;20041;-80
2023/04/03 02:08:38;;;;;;;5.13;2.78;;;;;;;0.79;88.16;102928.59;5064759;28;20096;-80
2023/04/03 02:11:06;;;;;;;4.32;2.67;;;;;;;0.76;88.40;102925.03;5063692;28;20076;-80
2023/04/03 02:13:33;;;;;;;5.20;2.60;;;;;;;0.75;88.36;102941.44;5062725;28;20073;-79
2023/04/03 02:16:08;;;;;;;4.80;2.53;;;;;;;0.73;88.26;102931.81;5063476;28;20064;-79
2023/04/03 02:18:35;;;;;;;4.20;2.38;;;;;;;0.72;88.48;102930.91;5064403;28;20128;-80
2023/04/03 02:21:03;;;;;;;4.47;1.95;;;;;;;0.69;88.58;102928.19;5062598;28;20041;-80
2023/04/03 02:23:30;;;;;;;9.13;2.72;;;;;;;0.68;88.73;102936.81;5063105;28;20033;-79
2023/04/03 02:26:06;;;;;;;7.88;2.33;;;;;;;0.69;88.83;102937.69;5065196;28;20509;-79
2023/04/03 02:28:34;;;;;;;4.63;2.40;;;;;;;0.67;88.86;102929.84;5062650;28;20523;-81
2023/04/03 02:31:03;;;;;;;5.03;2.28;;;;;;;0.69;88.84;102941.19;5065075;28;20535;-80
2023/04/03 02:33:30;;;;;;;4.85;2.17;;;;;;;0.71;88.84;102944.72;5079156;28;20142;-81
2023/04/03 02:35:59;;;;;;;6.80;2.40;;;;;;;0.71;88.97;102942.13;5067536;28;20559;-79
2023/04/03 02:38:26;;;;;;;5.82;2.40;;;;;;;0.71;88.89;102946.44;5064325;28;20130;-79
2023/04/03 02:41:04;;;;;;;4.40;2.38;;;;;;;0.70;88.95;102947.25;5066774;28;20053;-79
2023/04/03 02:43:31;;;;;;;6.32;2.33;;;;;;;0.68;88.93;102954.06;5069042;28;20061;-80
2023/04/03 02:45:59;;;;;;;4.85;2.40;;;;;;;0.67;88.92;102947.09;5067761;28;20060;-79
2023/04/03 02:48:27;;;;;;;5.30;2.25;;;;;;;0.66;89.02;102955.75;5066380;28;20051;-79
2023/04/03 02:50:55;;;;;;;5.15;2.13;;;;;;;0.66;89.06;102956.63;5066821;28;20539;-78
2023/04/03 02:53:22;;;;;;;4.47;2.17;;;;;;;0.63;89.00;102951.28;5060685;28;20037;-79
2023/04/03 02:55:50;;;;;;;4.68;2.00;;;;;;;0.61;88.95;102948.63;5067888;28;20041;-78
2023/04/03 02:58:17;;;;;;;4.25;2.13;;;;;;;0.62;89.15;102936.50;5065586;28;20116;-78
2023/04/03 03:00:45;;;;;;;5.00;2.38;;;;;;;0.61;89.21;102939.97;5067942;28;20781;-79
2023/04/03 03:03:13;;;;;;;5.65;2.20;;;;;;;0.61;89.12;102948.63;5048761;28;20052;-79
2023/04/03 03:05:41;;;;;;;5.20;2.60;;;;;;;0.60;89.32;102943.38;5067462;28;20052;-79
2023/04/03 03:08:08;;;;;;;4.00;2.25;;;;;;;0.59;89.22;102944.19;5067539;28;20529;-79
2023/04/03 03:10:35;;;;;;;5.63;2.33;;;;;;;0.57;89.34;102936.31;5068936;28;20048;-79
2023/04/03 03:13:02;;;;;;;3.83;2.30;;;;;;;0.58;89.36;102938.09;5066543;28;20075;-78
2023/04/03 03:15:29;;;;;;;4.38;2.40;;;;;;;0.58;89.31;102945.00;5064740;28;20107;-79
2023/04/03 03:17:56;;;;;;;5.95;2.22;;;;;;;0.54;89.48;102951.78;5066094;28;20037;-78
2023/04/03 03:20:23;;;;;;;5.05;2.83;;;;;;;0.52;89.43;102944.72;5067390;28;20041;-79
2023/04/03 03:22:50;;;;;;;4.65;2.13;;;;;;;0.50;89.33;102952.44;5064336;28;21812;-76
2023/04/03 03:25:17;;;;;;;5.65;2.25;;;;;;;0.49;89.13;102954.97;5067528;28;20497;-76
2023/04/03 03:27:45;;;;;;;7.05;2.38;;;;;;;0.45;89.23;102948.75;5068129;28;20047;-76
2023/04/03 03:30:12;;;;;;;4.45;2.20;;;;;;;0.44;89.22;102955.66;5066324;28;20039;-77
2023/04/03 03:32:39;;;;;;;5.20;2.28;;;;;;;0.44;89.21;102955.66;5067009;28;20041;-76
2023/04/03 03:35:07;;;;;;;4.22;1.90;;;;;;;0.43;89.36;102955.59;5049805;28;20099;-77
2023/04/03 03:37:34;;;;;;;7.30;2.63;;;;;;;0.42;89.36;102959.00;5064396;28;20132;-76
2023/04/03 03:40:02;;;;;;;7.15;2.58;;;;;;;0.40;89.48;102960.63;5060177;28;20095;-76
2023/04/03 03:42:30;;;;;;;5.32;2.05;;;;;;;0.39;89.38;102964.94;5066001;28;20148;-76
2023/04/03 03:44:57;;;;;;;4.22;2.30;;;;;;;0.39;89.39;102970.13;5062525;28;20132;-77
2023/04/03 03:47:25;;;;;;;4.30;2.10;;;;;;;0.41;89.43;102970.19;5066471;28;20503;-77
2023/04/03 03:49:52;;;;;;;6.93;2.08;;;;;;;0.37;89.24;102974.34;5065905;28;20057;-78
2023/04/03 03:52:19;;;;;;;5.75;1.95;;;;;;;0.36;89.36;102976.88;5065052;28;20041;-77
2023/04/03 03:54:46;;;;;;;4.75;2.17;;;;;;;0.34;89.34;102973.34;5063801;28;20128;-76
2023/04/03 03:57:16;;;;;;;6.00;1.90;;;;;;;0.33;89.33;102979.34;5066147;28;20512;-75
2023/04/03 03:59:44;;;;;;;4.18;2.17;;;;;;;0.34;89.21;102984.59;5066040;28;20045;-76
2023/04/03 04:02:11;;;;;;;4.38;2.00;;;;;;;0.34;89.31;102979.41;5064154;28;20120;-76
2023/04/03 04:04:38;;;;;;;5.95;2.10;;;;;;;0.34;89.16;102981.13;5062882;28;20041;-76
2023/04/03 04:07:05;;;;;;;4.53;2.10;;;;;;;0.32;89.31;102985.34;5077119;28;20040;-76
2023/04/03 04:09:34;;;;;;;4.57;1.92;;;;;;;0.28;89.17;102979.13;5060933;28;20103;-76
2023/04/03 04:12:01;;;;;;;4.43;1.77;;;;;;;0.26;89.32;102992.00;5064597;28;20180;-76
2023/04/03 04:14:30;;;;;;;4.60;1.90;;;;;;;0.27;89.37;102992.91;5065697;28;20873;-76
2023/04/03 04:16:58;;;;;;;5.57;2.35;;;;;;;0.26;89.46;102991.13;5063827;28;20065;-77
2023/04/03 04:19:27;;;;;;;3.40;1.80;;;;;;;0.26;89.39;102992.00;5066149;28;20053;-77
2023/04/03 04:21:54;;;;;;;5.38;2.30;;;;;;;0.27;89.35;102992.91;5062157;28;20044;-77
2023/04/03 04:24:22;;;;;;;6.25;1.95;;;;;;;0.26;89.18;102994.59;5062509;28;20447;-79
2023/04/03 04:26:52;;;;;;;3.92;2.03;;;;;;;0.24;89.19;102988.47;5064196;28;20112;-78
2023/04/03 04:29:20;;;;;;;5.53;2.10;;;;;;;0.23;89.18;102986.69;5066931;28;20045;-79
2023/04/03 04:31:50;;;;;;;6.35;2.30;;;;;;;0.21;89.14;102983.13;5065114;28;20060;-77
2023/04/03 04:34:17;;;;;;;3.85;1.90;;;;;;;0.23;89.21;102978.00;5064969;28;20072;-77
2023/04/03 04:36:44;;;;;;;6.45;1.90;;;;;;;0.21;89.01;102993.50;5067408;28;20043;-77
2023/04/03 04:39:11;;;;;;;5.80;1.90;;;;;;;0.21;89.02;102987.41;5063408;28;20041;-79
2023/04/03 04:41:39;;;;;;;4.75;1.67;;;;;;;0.20;88.85;102983.06;5062817;28;20044;-77
2023/04/03 04:44:06;;;;;;;7.43;2.13;;;;;;;0.19;88.80;102994.25;5063087;28;20143;-77
2023/04/03 04:46:35;;;;;;;4.22;1.80;;;;;;;0.16;88.72;102997.56;5063707;28;20083;-79
2023/04/03 04:49:02;;;;;;;5.25;1.50;;;;;;;0.20;89.89;102996.91;5062298;28;20526;-78
2023/04/03 04:51:30;;;;;;;4.90;1.88;;;;;;;0.42;91.33;103003.13;5064977;28;20103;-78
2023/04/03 04:54:11;;;;;;;4.75;2.00;;;;;;;0.68;91.63;103006.00;5062844;28;20072;-78
2023/04/03 04:56:39;;;;;;;5.60;1.90;;;;;;;0.84;90.97;103008.50;5060759;28;20048;-78
2023/04/03 04:59:07;;;;;;;2.90;1.92;;;;;;;0.94;90.57;103004.56;5062075;28;20102;-78
2023/04/03 05:01:35;;;;;;;4.80;1.90;;;;;;;1.05;90.45;103003.34;5058934;28;20044;-77
2023/04/03 05:04:09;;;;;;;4.43;1.70;;;;;;;1.14;89.29;103012.34;5062088;28;20049;-78
2023/04/03 05:06:35;;;;;;;6.38;2.00;;;;;;;1.17;88.65;103007.31;5066724;28;20049;-77
2023/04/03 05:09:07;;;;;;;5.25;1.75;;;;;;;1.15;87.56;103001.16;5064393;28;20454;-79
2023/04/03 05:11:35;;;;;;;8.88;1.92;;;;;;;1.13;87.52;103006.28;5054281;28;20041;-77
2023/04/03 05:14:08;;;;;;;6.15;2.08;;;;;;;1.15;86.95;103014.13;5057759;28;20501;-78
2023/04/03 05:16:36;;;;;;;4.50;2.05;;;;;;;1.15;86.32;103020.25;5062329;28;20124;-78
2023/04/03 05:19:03;;;;;;;3.75;1.70;;;;;;;1.15;86.57;103025.44;5057198;28;20049;-77
2023/04/03 05:21:32;;;;;;;4.38;1.75;;;;;;;1.20;86.00;103023.03;5058170;28;20144;-77
2023/04/03 05:24:04;;;;;;;4.07;1.75;;;;;;;1.19;85.57;103029.06;5076887;28;20053;-78
2023/04/03 05:26:33;;;;;;;3.88;1.90;;;;;;;1.17;85.07;103028.09;5060579;28;20055;-78
2023/04/03 05:29:03;;;;;;;5.63;1.92;;;;;;;1.08;84.78;103029.47;5064799;28;20075;-78
2023/04/03 05:31:31;;;;;;;5.05;1.52;;;;;;;1.00;84.42;103030.84;5066191;28;20037;-80
2023/04/03 05:33:58;;;;;;;4.07;1.88;;;;;;;0.88;83.96;103025.97;5052212;28;20045;-79
2023/04/03 05:36:28;;;;;;;3.63;1.80;;;;;;;0.79;83.94;103028.16;5060915;28;20052;-80
2023/04/03 05:39:00;;;;;;;5.32;2.20;;;;;;;0.72;84.04;103026.13;5063663;28;20049;-79
2023/04/03 05:41:27;;;;;;;5.32;1.85;;;;;;;0.69;83.98;103031.16;5066355;28;20052;-80
2023/04/03 05:43:55;;;;;;;5.15;1.60;;;;;;;0.66;83.99;103033.63;5067980;28;20140;-80
2023/04/03 05:46:27;;;;;;;6.40;1.80;;;;;;;0.65;83.92;103037.03;5064592;28;20060;-79
2023/04/03 05:48:57;;;;;;;6.20;2.00;;;;;;;0.63;84.09;103039.53;5052365;28;20040;-79
2023/04/03 05:51:35;;;;;;;3.50;2.20;;;;;;;0.63;84.48;103036.94;5058166;28;20140;-79
2023/04/03 05:54:29;;;;;;;4.85;1.63;;;;;;;0.66;84.41;103041.41;5066313;28;20052;-80
2023/04/03 05:57:06;;;;;;;5.22;1.90;;;;;;;0.68;84.42;103039.75;5047378;28;20037;-80
2023/04/03 05:59:33;;;;;;;6.30;1.60;;;;;;;0.73;84.33;103043.47;5062603;28;20044;-80
2023/04/03 06:02:00;;;;;;;6.07;1.90;;;;;;;0.76;84.33;103039.31;5064155;28;20060;-79
2023/04/03 06:04:28;;;;;;;3.53;1.63;;;;;;;0.82;83.83;103046.47;5065221;28;20060;-80
2023/04/03 06:06:57;;;;;;;5.88;1.88;;;;;;;0.87;83.62;103044.97;5066995;28;20097;-80
2023/04/03 06:09:28;;;;;;;6.07;1.80;;;;;;;0.95;83.21;103055.72;5057857;28;20064;-80
2023/04/03 06:11:58;;;;;;;4.30;1.80;;;;;;;0.97;83.24;103048.00;5068272;28;20132;-80
2023/04/03 06:14:27;;;;;;;5.53;1.80;;;;;;;1.06;82.64;103056.22;5071259;28;21009;-82
2023/04/03 06:16:54;;;;;;;5.03;1.95;;;;;;;1.14;82.03;103059.13;5069693;28;20095;-79
2023/04/03 06:19:22;;;;;;;4.85;1.80;;;;;;;1.16;81.85;103061.00;5068757;28;20091;-78
2023/04/03 06:21:53;;;;;;;4.05;1.85;;;;;;;1.20;82.12;103049.03;5066655;28;20068;-78
2023/04/03 06:24:22;;;;;;;3.85;1.63;;;;;;;1.28;81.42;103058.03;5069858;28;20045;-78
2023/04/03 06:26:51;;;;;;;4.03;1.70;;;;;;;1.31;81.51;103058.19;5078495;28;20049;-78
2023/04/03 06:29:19;;;;;;;4.30;1.90;;;;;;;1.41;80.98;103061.19;5054901;28;20053;-79
2023/04/03 06:31:48;;;;;;;4.53;1.70;;;;;;;1.43;81.13;103062.09;5063503;28;20600;-79
2023/04/03 06:34:15;;;;;;;5.32;2.15;;;;;;;1.52;80.81;103065.13;5069650;28;20057;-79
2023/04/03 06:36:44;;;;;;;4.00;1.80;;;;;;;1.59;79.97;103069.75;5070004;28;20033;-78
2023/04/03 06:39:16;;;;;;;4.15;1.63;;;;;;;1.64;79.67;103068.22;5068744;28;20537;-79
2023/04/03 06:41:44;;;;;;;5.57;2.13;;;;;;;1.69;79.71;103076.22;5064009;28;20049;-76
2023/04/03 06:44:12;;;;;;;3.58;1.90;;;;;;;1.71;79.72;103071.97;5062674;28;20058;-77
2023/04/03 06:46:40;;;;;;;5.93;2.03;;;;;;;1.79;79.29;103072.31;5066661;28;20784;-78
2023/04/03 06:49:07;;;;;;;6.55;1.90;;;;;;;1.88;79.43;103070.09;5067061;28;20115;-78
2023/04/03 06:51:37;;;;;;;7.05;1.85;;;;;;;1.96;78.98;103067.81;5064949;28;20041;-78
2023/04/03 06:54:08;;;;;;;4.30;2.22;;;;;;;2.05;78.53;103065.59;5063986;28;20123;-78
2023/04/03 06:56:35;;;;;;;6.93;1.48;;;;;;;2.14;78.32;103075.47;5068583;28;20061;-79
2023/04/03 06:59:03;;;;;;;5.68;1.60;;;;;;;2.19;78.24;103076.56;5067925;28;20112;-79
2023/04/03 07:01:31;;;;;;;5.03;1.92;;;;;;;2.28;77.56;103073.44;5066693;28;20053;-77
2023/04/03 07:03:58;;;;;;;4.07;1.77;;;;;;;2.40;76.37;103078.25;5068546;28;20863;-79
2023/04/03 07:06:28;;;;;;;6.15;1.98;;;;;;;2.41;76.34;103086.09;5068020;28;20056;-79
2023/04/03 07:08:55;;;;;;;4.80;1.85;;;;;;;2.48;75.58;103079.41;5069000;28;20128;-79
2023/04/03 07:11:23;;;;;;;5.65;1.83;;;;;;;2.49;76.03;103092.50;5068631;28;20041;-77
2023/04/03 07:13:50;;;;;;;6.05;2.00;;;;;;;2.60;75.83;103094.63;5067187;28;20057;-79
2023/04/03 07:16:19;;;;;;;3.65;1.60;;;;;;;2.68;75.14;103085.41;5056889;28;20056;-78
2023/04/03 07:18:46;;;;;;;6.28;1.60;;;;;;;2.74;74.79;103093.47;5056163;28;20125;-78
2023/04/03 07:21:14;;;;;;;5.97;1.73;;;;;;;2.84;74.64;103105.13;5047387;28;20052;-79
2023/04/03 07:23:41;;;;;;;4.05;1.70;;;;;;;2.92;74.60;103097.59;5067169;28;20041;-79
2023/04/03 07:26:09;;;;;;;3.88;1.65;;;;;;;3.02;72.87;103093.63;5068043;28;20037;-77
2023/04/03 07:28:36;;;;;;;4.63;1.50;;;;;;;3.06;72.14;103105.91;5068545;28;20479;-78
2023/04/03 07:31:11;;;;;;;4.78;1.73;;;;;;;3.08;71.89;103105.16;5067314;28;20056;-77
2023/04/03 07:33:40;;;;;;;3.80;1.60;;;;;;;3.13;71.53;103114.84;5068351;28;20126;-78
2023/04/03 07:36:10;;;;;;;4.78;1.70;;;;;;;3.18;71.29;103110.72;5067690;28;20051;-79
2023/04/03 07:38:37;;;;;;;4.97;1.65;;;;;;;3.21;70.74;103114.31;5065294;28;20495;-80
2023/04/03 07:41:05;;;;;;;5.07;1.92;;;;;;;3.22;70.41;103110.88;5067499;28;20041;-79
2023/04/03 07:43:34;;;;;;;4.88;1.55;;;;;;;3.21;70.12;103121.22;5061371;28;20056;-78
2023/04/03 07:46:01;;;;;;;6.97;1.52;;;;;;;3.26;69.97;103123.19;5064332;28;20133;-77
2023/04/03 07:48:28;;;;;;;4.20;1.58;;;;;;;3.35;69.33;103122.63;5068068;28;20041;-79
2023/04/03 07:51:00;;;;;;;7.00;1.50;;;;;;;3.39;69.25;103124.53;5067995;28;20043;-78
2023/04/03 07:53:28;;;;;;;5.60;1.70;;;;;;;3.46;69.80;103120.41;5065797;28;20546;-78
2023/04/03 07:56:00;;;;;;;5.38;1.55;;;;;;;3.58;68.81;103127.78;5068157;28;20857;-78
2023/04/03 07:58:27;;;;;;;5.32;1.80;;;;;;;3.69;67.20;103122.94;5067811;28;20044;-78
2023/04/03 08:00:54;;;;;;;8.90;1.70;;;;;;;3.72;67.16;103123.06;5067181;28;20051;-78
2023/04/03 08:03:22;;;;;;;3.67;1.58;;;;;;;3.78;66.74;103119.78;5067004;28;20053;-78
2023/04/03 08:05:50;;;;;;;6.15;1.50;;;;;;;3.91;66.53;103127.19;5067814;28;20052;-79
2023/04/03 08:08:22;;;;;;;6.38;1.58;;;;;;;3.96;65.70;103117.78;5068548;28;20044;-76
2023/04/03 08:10:52;;;;;;;4.78;1.50;;;;;;;4.08;65.14;103129.47;5057363;28;20122;-79
2023/04/03 08:13:21;;;;;;;5.85;1.58;;;;;;;4.14;64.00;103121.84;5066808;28;20044;-78
2023/04/03 08:15:48;;;;;;;3.90;1.50;;;;;;;4.22;63.71;103130.84;5066574;28;20050;-79
2023/04/03 08:18:16;;;;;;;6.45;1.83;;;;;;;4.27;64.65;103118.81;5064609;28;20496;-78
2023/04/03 08:20:43;;;;;;;6.22;1.40;;;;;;;4.40;62.92;103122.69;5068478;28;20041;-76
2023/04/03 08:23:11;;;;;;;3.42;1.25;;;;;;;4.52;62.04;103122.22;5067391;28;20103;-81
2023/04/03 08:25:42;;;;;;;4.03;1.30;;;;;;;4.59;61.75;103123.25;5054881;28;20042;-77
2023/04/03 08:28:11;;;;;;;5.25;1.70;;;;;;;4.68;62.03;103128.78;5054912;28;20128;-75
2023/04/03 08:30:41;;;;;;;5.95;1.35;;;;;;;4.80;60.82;103126.53;5067294;28;20041;-78
2023/04/03 08:33:09;;;;;;;3.47;1.10;;;;;;;4.86;59.86;103132.81;5047136;28;20038;-75
2023/04/03 08:35:41;;;;;;;2.55;1.10;;;;;;;4.90;59.58;103132.03;5048284;28;20096;-75
2023/04/03 08:38:10;;;;;;;3.78;1.33;;;;;;;5.00;57.85;103128.88;5047072;28;20056;-77
2023/04/03 08:40:45;;;;;;;3.05;1.30;;;;;;;5.05;57.75;103129.91;5047670;28;20092;-77
2023/04/03 08:43:31;;;;;;;3.80;1.15;;;;;;;5.22;54.33;103135.63;5056047;28;20049;-77
2023/04/03 08:46:05;;;;;;;3.63;1.42;;;;;;;5.21;53.46;103136.47;5063086;28;20692;-77
2023/04/03 08:48:39;;;;;;;2.50;1.08;;;;;;;5.23;53.30;103145.25;5067876;28;20045;-79
2023/04/03 08:51:19;;;;;;;4.28;1.10;;;;;;;5.28;53.01;103140.16;5066153;28;20124;-76
2023/04/03 08:54:04;;;;;;;2.45;1.13;;;;;;;5.38;50.17;103142.19;5063758;28;20502;-77
2023/04/03 08:56:34;;;;;;;3.67;1.23;;;;;;;5.48;50.62;103132.84;5064209;28;20049;-75
2023/04/03 08:59:13;;;;;;;2.95;0.98;;;;;;;5.64;50.65;103123.69;5066059;28;20045;-75
2023/04/03 09:01:42;;;;;;;2.97;0.90;;;;;;;5.74;50.04;103117.84;5065653;28;20056;-77
2023/04/03 09:04:16;;;;;;;3.47;0.90;;;;;;;5.88;49.62;103119.94;5063924;28;20125;-79
2023/04/03 09:06:57;;;;;;;2.80;0.98;;;;;;;5.98;48.50;103128.91;5066851;28;20130;-79
2023/04/03 09:09:42;;;;;;;3.10;0.95;;;;;;;6.02;48.70;103130.81;5063621;28;20033;-77
2023/04/03 09:12:26;;;;;;;2.00;0.65;;;;;;;6.13;46.49;103128.44;5062861;28;20076;-79
2023/04/03 09:15:14;;;;;;;2.07;0.60;;;;;;;6.15;44.72;103130.28;5057249;28;20048;-78
2023/04/03 09:18:11;;;;;;;1.83;0.70;;;;;;;6.16;42.99;103134.63;5066139;28;20045;-79
2023/04/03 09:20:57;;;;;;;1.45;0.50;;;;;;;6.18;42.17;103132.06;5063024;28;20767;-78
2023/04/03 09:23:38;;;;;;;2.28;0.60;;;;;;;6.23;41.01;103138.31;5050555;28;20514;-76
2023/04/03 09:26:19;;;;;;;1.52;0.50;;;;;;;6.19;39.92;103131.22;5059779;28;20124;-78
2023/04/03 09:28:46;;;;;;;2.53;0.60;;;;;;;6.22;41.38;103133.91;5065983;28;20069;-77
2023/04/03 09:31:29;;;;;;;1.65;0.52;;;;;;;6.35;40.36;103129.88;5066405;28;20049;-77
2023/04/03 09:34:09;;;;;;;2.00;0.50;;;;;;;6.44;40.34;103129.19;5066303;28;20064;-78
2023/04/03 09:36:47;;;;;;;1.15;0.50;;;;;;;6.59;39.16;103120.78;5065617;28;20037;-80
2023/04/03 09:39:20;;;;;;;2.35;0.60;;;;;;;6.57;40.03;103115.53;5065773;28;20092;-80
2023/04/03 09:42:04;;;;;;;1.25;0.50;;;;;;;6.64;40.17;103113.94;5065986;28;20041;-78
2023/04/03 09:44:32;;;;;;;1.70;0.57;;;;;;;6.72;38.56;103122.84;5067009;28;20591;-78
2023/04/03 09:47:18;;;;;;;1.30;0.50;;;;;;;6.77;37.48;103112.47;5068960;28;20049;-77
2023/04/03 09:49:45;;;;;;;1.80;0.30;;;;;;;6.91;36.77;103110.13;5066269;28;20037;-78
2023/04/03 09:52:44;;;;;;;0.93;0.40;;;;;;;6.98;36.16;103106.78;5056647;28;20112;-77
2023/04/03 09:55:29;;;;;;;1.20;0.40;;;;;;;7.07;36.09;103111.34;5064462;28;20060;-78
2023/04/03 09:58:22;;;;;;;1.40;0.40;;;;;;;7.12;34.51;103107.97;5071034;28;20041;-81
2023/04/03 10:00:57;;;;;;;2.13;0.45;;;;;;;7.13;34.62;103115.00;5062809;28;20045;-78
2023/04/03 10:03:35;;;;;;;0.90;0.32;;;;;;;7.17;32.96;103112.44;5066288;28;20655;-80
2023/04/03 10:06:03;;;;;;;2.05;0.55;;;;;;;7.17;33.46;103101.94;5066169;28;20484;-80
2023/04/03 10:08:34;;;;;;;1.67;0.50;;;;;;;7.13;34.10;103094.00;5058773;28;20034;-75
2023/04/03 10:11:11;;;;;;;1.05;0.40;;;;;;;7.24;33.81;103086.31;5065292;28;20041;-76
2023/04/03 10:14:04;;;;;;;0.90;0.40;;;;;;;7.28;33.32;103090.78;5062258;28;20037;-78
2023/04/03 10:16:44;;;;;;;1.85;0.80;;;;;;;7.23;34.73;103088.94;5065703;28;20048;-75
2023/04/03 10:19:43;;;;;;;1.45;0.73;;;;;;;7.29;34.48;103092.56;5060266;28;20774;-77
2023/04/03 10:22:25;;;;;;;0.93;0.40;;;;;;;7.30;34.02;103101.31;5048995;28;20033;-76
2023/04/03 10:25:25;;;;;;;2.50;0.50;;;;;;;7.32;34.30;103094.34;5060804;28;20107;-76
2023/04/03 10:28:00;;;;;;;3.47;0.70;;;;;;;7.37;35.38;103078.69;5067924;28;20807;-78
2023/04/03 10:30:58;;;;;;;1.23;0.60;;;;;;;7.44;36.29;103075.31;5063949;28;20124;-77
2023/04/03 10:33:44;;;;;;;1.95;0.50;;;;;;;7.58;33.31;103073.84;5053927;28;20048;-77
2023/04/03 10:37:07;;;;;;;1.48;0.50;;;;;;;7.59;35.16;103064.22;5063182;28;20867;-78
2023/04/03 10:40:24;;;;;;;2.05;0.50;;;;;;;7.77;35.03;103072.44;5067567;28;20132;-78
2023/04/03 10:43:06;;;;;;;1.15;0.60;;;;;;;7.89;34.47;103062.97;5066018;28;20045;-76
2023/04/03 10:46:12;;;;;;;2.03;0.90;;;;;;;7.93;35.03;103052.56;5065414;28;20103;-76
2023/04/03 10:48:57;;;;;;;1.95;0.60;;;;;;;8.09;35.28;103063.31;5063226;28;20052;-76
2023/04/03 10:51:47;;;;;;;1.65;0.50;;;;;;;8.22;33.04;103060.03;5056638;28;20132;-75
2023/04/03 10:54:36;;;;;;;1.95;0.50;;;;;;;8.18;34.19;103050.31;5057907;28;20044;-78
2023/04/03 10:57:07;;;;;;;2.13;0.60;;;;;;;8.29;34.30;103053.09;5062272;28;20048;-75
2023/04/03 10:59:53;;;;;;;2.17;0.63;;;;;;;8.37;33.36;103047.94;5066445;28;20048;-76
2023/04/03 11:02:49;;;;;;;1.02;0.50;;;;;;;8.33;33.06;103039.13;5068762;28;20124;-76
2023/04/03 11:05:37;;;;;;;1.85;0.70;;;;;;;8.36;34.26;103047.06;5067489;28;20037;-76
2023/04/03 11:08:39;;;;;;;2.10;0.80;;;;;;;8.46;34.34;103032.31;5054468;28;20049;-77
2023/04/03 11:11:13;;;;;;;3.92;0.70;;;;;;;8.55;32.20;103034.22;5061266;28;20053;-76
2023/04/03 11:13:50;;;;;;;2.28;0.52;;;;;;;8.52;31.79;103026.28;5064810;28;20057;-78
2023/04/03 11:16:36;;;;;;;4.22;0.80;;;;;;;8.52;32.69;103026.28;5060160;28;20045;-76
2023/04/03 11:19:35;;;;;;;1.92;0.60;;;;;;;8.54;33.14;103027.19;5051420;28;20037;-76
2023/04/03 11:23:13;;;;;;;1.80;0.60;;;;;;;8.66;34.71;103032.63;5058237;28;20605;-75
2023/04/03 11:25:45;;;;;;;3.53;0.77;;;;;;;8.80;34.74;103017.00;5039348;28;20117;-78
2023/04/03 11:28:14;;;;;;;4.93;0.80;;;;;;;8.89;33.54;103029.38;5040341;28;20058;-77
2023/04/03 11:31:25;;;;;;;0.95;0.57;;;;;;;8.86;33.88;103032.84;5051291;28;20151;-77
2023/04/03 11:34:17;;;;;;;1.63;0.70;;;;;;;8.89;34.18;103017.97;5059613;28;20048;-77
2023/04/03 11:36:52;;;;;;;2.78;0.88;;;;;;;8.92;35.33;103018.88;5053808;28;20451;-77
2023/04/03 11:39:28;;;;;;;1.75;0.75;;;;;;;9.02;35.59;103009.34;5063118;28;20115;-76
2023/04/03 11:41:55;;;;;;;3.88;0.80;;;;;;;9.19;35.01;103014.81;5057407;28;20042;-77
2023/04/03 11:44:39;;;;;;;2.30;0.80;;;;;;;9.19;35.09;103006.91;5063267;28;20063;-77
2023/04/03 11:47:10;;;;;;;3.33;0.60;;;;;;;9.23;33.06;103003.41;5063491;28;20103;-77
2023/04/03 11:50:05;;;;;;;1.65;0.60;;;;;;;9.23;34.18;103011.31;5065703;28;20147;-76
2023/04/03 11:52:38;;;;;;;1.42;0.70;;;;;;;9.28;33.28;103001.72;5054413;28;20046;-77
2023/04/03 11:55:21;;;;;;;3.10;0.70;;;;;;;9.26;33.67;103006.09;5060434;28;20092;-77
2023/04/03 11:58:00;;;;;;;1.58;0.70;;;;;;;9.29;34.54;103006.13;5057052;28;20053;-76
2023/04/03 12:00:43;;;;;;;5.22;0.80;;;;;;;9.35;34.25;103002.69;5060938;28;20853;-75
2023/04/03 12:06:04;;;;;;;1.85;0.60;;;;;;;9.34;33.26;103003.53;5058046;28;20038;-77